sensor_id;sensor_type;location;lat;lon;timestamp;P1;durP1;ratioP1;P2;durP2;ratioP2
13731;SDS011;6937;56.096;12.664;2023-08-06T00:00:49;6.38;;;2.42;;
13731;SDS011;6937;56.096;12.664;2023-08-06T00:03:14;6.70;;;2.00;;
13731;SDS011;6937;56.096;12.664;2023-08-06T00:05:43;8.40;;;2.10;;
13731;SDS011;6937;56.096;12.664;2023-08-06T00:08:08;6.07;;;2.53;;
13731;SDS011;6937;56.096;12.664;2023-08-06T00:10:34;4.93;;;2.10;;
13731;SDS011;6937;56.096;12.664;2023-08-06T00:12:59;3.78;;;1.90;;
13731;SDS011;6937;56.096;12.664;2023-08-06T00:15:24;7.10;;;1.90;;
13731;SDS011;6937;56.096;12.664;2023-08-06T00:17:50;2.63;;;1.58;;
13731;SDS011;6937;56.096;12.664;2023-08-06T00:20:15;2.28;;;1.88;;
13731;SDS011;6937;56.096;12.664;2023-08-06T00:22:41;3.88;;;2.00;;
13731;SDS011;6937;56.096;12.664;2023-08-06T00:25:06;3.95;;;1.73;;
13731;SDS011;6937;56.096;12.664;2023-08-06T00:27:32;4.82;;;2.10;;
13731;SDS011;6937;56.096;12.664;2023-08-06T00:29:57;3.83;;;1.75;;
13731;SDS011;6937;56.096;12.664;2023-08-06T00:32:23;3.22;;;1.90;;
13731;SDS011;6937;56.096;12.664;2023-08-06T00:34:49;6.03;;;2.03;;
13731;SDS011;6937;56.096;12.664;2023-08-06T00:37:15;3.47;;;2.22;;
13731;SDS011;6937;56.096;12.664;2023-08-06T00:39:43;4.85;;;2.40;;
13731;SDS011;6937;56.096;12.664;2023-08-06T00:42:10;2.95;;;2.50;;
13731;SDS011;6937;56.096;12.664;2023-08-06T00:44:36;4.05;;;2.30;;
13731;SDS011;6937;56.096;12.664;2023-08-06T00:47:01;2.70;;;2.50;;
13731;SDS011;6937;56.096;12.664;2023-08-06T00:49:27;3.38;;;3.00;;
13731;SDS011;6937;56.096;12.664;2023-08-06T00:51:53;4.20;;;2.75;;
13731;SDS011;6937;56.096;12.664;2023-08-06T00:54:18;4.45;;;2.90;;
13731;SDS011;6937;56.096;12.664;2023-08-06T00:56:44;3.35;;;2.90;;
13731;SDS011;6937;56.096;12.664;2023-08-06T00:59:11;4.10;;;2.85;;
13731;SDS011;6937;56.096;12.664;2023-08-06T01:01:37;2.70;;;2.50;;
13731;SDS011;6937;56.096;12.664;2023-08-06T01:04:03;2.78;;;2.20;;
13731;SDS011;6937;56.096;12.664;2023-08-06T01:09:10;4.13;;;2.40;;
13731;SDS011;6937;56.096;12.664;2023-08-06T01:11:44;3.95;;;2.88;;
13731;SDS011;6937;56.096;12.664;2023-08-06T01:14:33;3.42;;;2.85;;
13731;SDS011;6937;56.096;12.664;2023-08-06T01:17:11;5.45;;;2.90;;
13731;SDS011;6937;56.096;12.664;2023-08-06T01:19:37;5.15;;;3.22;;
13731;SDS011;6937;56.096;12.664;2023-08-06T01:22:03;4.57;;;3.33;;
13731;SDS011;6937;56.096;12.664;2023-08-06T01:24:29;3.75;;;3.17;;
13731;SDS011;6937;56.096;12.664;2023-08-06T01:26:57;6.50;;;3.58;;
13731;SDS011;6937;56.096;12.664;2023-08-06T01:29:34;3.47;;;3.15;;
13731;SDS011;6937;56.096;12.664;2023-08-06T01:32:05;4.20;;;3.80;;
13731;SDS011;6937;56.096;12.664;2023-08-06T01:34:35;4.70;;;3.58;;
13731;SDS011;6937;56.096;12.664;2023-08-06T01:37:04;5.53;;;3.63;;
13731;SDS011;6937;56.096;12.664;2023-08-06T01:39:32;3.78;;;3.40;;
13731;SDS011;6937;56.096;12.664;2023-08-06T01:41:58;5.13;;;3.97;;
13731;SDS011;6937;56.096;12.664;2023-08-06T01:44:23;4.55;;;3.00;;
13731;SDS011;6937;56.096;12.664;2023-08-06T01:46:48;3.50;;;3.20;;
13731;SDS011;6937;56.096;12.664;2023-08-06T01:49:14;3.13;;;2.83;;
13731;SDS011;6937;56.096;12.664;2023-08-06T01:51:39;3.88;;;2.90;;
13731;SDS011;6937;56.096;12.664;2023-08-06T01:54:04;3.80;;;3.30;;
13731;SDS011;6937;56.096;12.664;2023-08-06T01:56:30;2.97;;;2.78;;
13731;SDS011;6937;56.096;12.664;2023-08-06T01:58:55;3.13;;;2.50;;
13731;SDS011;6937;56.096;12.664;2023-08-06T02:01:20;3.70;;;2.60;;
13731;SDS011;6937;56.096;12.664;2023-08-06T02:03:46;4.57;;;2.50;;
13731;SDS011;6937;56.096;12.664;2023-08-06T02:06:11;2.67;;;2.40;;
13731;SDS011;6937;56.096;12.664;2023-08-06T02:08:36;2.63;;;2.42;;
13731;SDS011;6937;56.096;12.664;2023-08-06T02:11:02;3.92;;;2.22;;
13731;SDS011;6937;56.096;12.664;2023-08-06T02:13:27;2.63;;;2.38;;
13731;SDS011;6937;56.096;12.664;2023-08-06T02:15:53;3.50;;;2.10;;
13731;SDS011;6937;56.096;12.664;2023-08-06T02:18:18;3.03;;;2.42;;
13731;SDS011;6937;56.096;12.664;2023-08-06T02:20:44;3.38;;;2.75;;
13731;SDS011;6937;56.096;12.664;2023-08-06T02:23:20;3.17;;;2.10;;
13731;SDS011;6937;56.096;12.664;2023-08-06T02:25:46;2.60;;;2.10;;
13731;SDS011;6937;56.096;12.664;2023-08-06T02:28:11;2.50;;;2.30;;
13731;SDS011;6937;56.096;12.664;2023-08-06T02:30:36;3.50;;;2.58;;
13731;SDS011;6937;56.096;12.664;2023-08-06T02:33:02;2.88;;;2.60;;
13731;SDS011;6937;56.096;12.664;2023-08-06T02:35:27;3.70;;;3.05;;
13731;SDS011;6937;56.096;12.664;2023-08-06T02:37:52;4.32;;;2.47;;
13731;SDS011;6937;56.096;12.664;2023-08-06T02:40:18;2.70;;;2.35;;
13731;SDS011;6937;56.096;12.664;2023-08-06T02:42:43;5.90;;;2.53;;
13731;SDS011;6937;56.096;12.664;2023-08-06T02:45:08;3.13;;;2.75;;
13731;SDS011;6937;56.096;12.664;2023-08-06T02:47:34;2.72;;;2.13;;
13731;SDS011;6937;56.096;12.664;2023-08-06T02:49:59;2.55;;;2.33;;
13731;SDS011;6937;56.096;12.664;2023-08-06T02:52:24;3.05;;;2.78;;
13731;SDS011;6937;56.096;12.664;2023-08-06T02:54:50;5.10;;;2.78;;
13731;SDS011;6937;56.096;12.664;2023-08-06T02:57:15;5.07;;;3.20;;
13731;SDS011;6937;56.096;12.664;2023-08-06T02:59:40;4.53;;;3.33;;
13731;SDS011;6937;56.096;12.664;2023-08-06T03:02:06;4.65;;;3.08;;
13731;SDS011;6937;56.096;12.664;2023-08-06T03:04:31;3.30;;;2.95;;
13731;SDS011;6937;56.096;12.664;2023-08-06T03:06:56;3.15;;;2.85;;
13731;SDS011;6937;56.096;12.664;2023-08-06T03:09:22;3.63;;;3.33;;
13731;SDS011;6937;56.096;12.664;2023-08-06T03:11:47;4.30;;;3.20;;
13731;SDS011;6937;56.096;12.664;2023-08-06T03:14:12;4.10;;;2.80;;
13731;SDS011;6937;56.096;12.664;2023-08-06T03:16:38;3.50;;;2.92;;
13731;SDS011;6937;56.096;12.664;2023-08-06T03:19:03;4.53;;;2.97;;
13731;SDS011;6937;56.096;12.664;2023-08-06T03:21:28;4.65;;;3.65;;
13731;SDS011;6937;56.096;12.664;2023-08-06T03:23:54;3.75;;;3.00;;
13731;SDS011;6937;56.096;12.664;2023-08-06T03:26:19;4.22;;;2.72;;
13731;SDS011;6937;56.096;12.664;2023-08-06T03:28:44;3.40;;;2.70;;
13731;SDS011;6937;56.096;12.664;2023-08-06T03:31:10;4.35;;;2.78;;
13731;SDS011;6937;56.096;12.664;2023-08-06T03:33:35;3.40;;;2.80;;
13731;SDS011;6937;56.096;12.664;2023-08-06T03:36:01;5.97;;;3.10;;
13731;SDS011;6937;56.096;12.664;2023-08-06T03:38:26;4.82;;;2.72;;
13731;SDS011;6937;56.096;12.664;2023-08-06T03:40:52;3.33;;;2.97;;
13731;SDS011;6937;56.096;12.664;2023-08-06T03:43:18;2.70;;;2.50;;
13731;SDS011;6937;56.096;12.664;2023-08-06T03:45:43;2.60;;;2.38;;
13731;SDS011;6937;56.096;12.664;2023-08-06T03:48:08;4.20;;;2.83;;
13731;SDS011;6937;56.096;12.664;2023-08-06T03:50:34;3.13;;;2.60;;
13731;SDS011;6937;56.096;12.664;2023-08-06T03:53:00;5.50;;;3.53;;
13731;SDS011;6937;56.096;12.664;2023-08-06T03:55:26;3.90;;;2.90;;
13731;SDS011;6937;56.096;12.664;2023-08-06T03:57:52;3.45;;;2.70;;
13731;SDS011;6937;56.096;12.664;2023-08-06T04:00:17;3.60;;;2.88;;
13731;SDS011;6937;56.096;12.664;2023-08-06T04:02:42;3.97;;;2.70;;
13731;SDS011;6937;56.096;12.664;2023-08-06T04:05:08;3.38;;;2.92;;
13731;SDS011;6937;56.096;12.664;2023-08-06T04:07:34;2.75;;;2.55;;
13731;SDS011;6937;56.096;12.664;2023-08-06T04:10:00;2.72;;;2.50;;
13731;SDS011;6937;56.096;12.664;2023-08-06T04:12:27;3.22;;;2.88;;
13731;SDS011;6937;56.096;12.664;2023-08-06T04:14:52;3.47;;;2.42;;
13731;SDS011;6937;56.096;12.664;2023-08-06T04:17:18;2.95;;;2.65;;
13731;SDS011;6937;56.096;12.664;2023-08-06T04:19:50;3.65;;;2.45;;
13731;SDS011;6937;56.096;12.664;2023-08-06T04:22:17;3.88;;;2.47;;
13731;SDS011;6937;56.096;12.664;2023-08-06T04:24:43;2.58;;;2.38;;
13731;SDS011;6937;56.096;12.664;2023-08-06T04:27:09;2.60;;;2.40;;
13731;SDS011;6937;56.096;12.664;2023-08-06T04:29:35;2.65;;;2.30;;
13731;SDS011;6937;56.096;12.664;2023-08-06T04:32:01;2.42;;;2.10;;
13731;SDS011;6937;56.096;12.664;2023-08-06T04:34:27;2.75;;;2.42;;
13731;SDS011;6937;56.096;12.664;2023-08-06T04:36:52;4.07;;;2.30;;
13731;SDS011;6937;56.096;12.664;2023-08-06T04:39:17;4.32;;;2.38;;
13731;SDS011;6937;56.096;12.664;2023-08-06T04:41:43;4.28;;;2.25;;
13731;SDS011;6937;56.096;12.664;2023-08-06T04:44:08;5.65;;;2.40;;
13731;SDS011;6937;56.096;12.664;2023-08-06T04:46:34;2.78;;;2.42;;
13731;SDS011;6937;56.096;12.664;2023-08-06T04:48:59;3.10;;;2.30;;
13731;SDS011;6937;56.096;12.664;2023-08-06T04:51:24;2.55;;;2.28;;
13731;SDS011;6937;56.096;12.664;2023-08-06T04:53:49;3.35;;;2.03;;
13731;SDS011;6937;56.096;12.664;2023-08-06T04:56:15;3.03;;;2.35;;
13731;SDS011;6937;56.096;12.664;2023-08-06T04:58:40;3.67;;;2.40;;
13731;SDS011;6937;56.096;12.664;2023-08-06T05:01:06;3.72;;;2.40;;
13731;SDS011;6937;56.096;12.664;2023-08-06T05:03:31;2.55;;;2.30;;
13731;SDS011;6937;56.096;12.664;2023-08-06T05:05:57;2.90;;;2.17;;
13731;SDS011;6937;56.096;12.664;2023-08-06T05:08:22;2.47;;;2.20;;
13731;SDS011;6937;56.096;12.664;2023-08-06T05:10:47;2.03;;;1.83;;
13731;SDS011;6937;56.096;12.664;2023-08-06T05:13:13;3.03;;;2.30;;
13731;SDS011;6937;56.096;12.664;2023-08-06T05:15:38;3.33;;;2.22;;
13731;SDS011;6937;56.096;12.664;2023-08-06T05:18:07;2.40;;;2.20;;
13731;SDS011;6937;56.096;12.664;2023-08-06T05:20:35;2.33;;;2.03;;
13731;SDS011;6937;56.096;12.664;2023-08-06T05:23:02;2.53;;;2.33;;
13731;SDS011;6937;56.096;12.664;2023-08-06T05:25:28;2.40;;;2.20;;
13731;SDS011;6937;56.096;12.664;2023-08-06T05:27:53;5.57;;;2.50;;
13731;SDS011;6937;56.096;12.664;2023-08-06T05:30:18;3.80;;;2.20;;
13731;SDS011;6937;56.096;12.664;2023-08-06T05:32:44;2.65;;;2.17;;
13731;SDS011;6937;56.096;12.664;2023-08-06T05:35:09;3.35;;;2.33;;
13731;SDS011;6937;56.096;12.664;2023-08-06T05:37:34;3.45;;;2.05;;
13731;SDS011;6937;56.096;12.664;2023-08-06T05:40:00;3.13;;;1.90;;
13731;SDS011;6937;56.096;12.664;2023-08-06T05:42:26;2.38;;;1.90;;
13731;SDS011;6937;56.096;12.664;2023-08-06T05:44:51;2.30;;;2.03;;
13731;SDS011;6937;56.096;12.664;2023-08-06T05:47:17;2.33;;;1.85;;
13731;SDS011;6937;56.096;12.664;2023-08-06T05:49:42;2.38;;;1.77;;
13731;SDS011;6937;56.096;12.664;2023-08-06T05:52:07;2.88;;;2.00;;
13731;SDS011;6937;56.096;12.664;2023-08-06T05:54:33;2.47;;;2.03;;
13731;SDS011;6937;56.096;12.664;2023-08-06T05:56:58;2.47;;;1.80;;
13731;SDS011;6937;56.096;12.664;2023-08-06T05:59:24;2.58;;;1.85;;
13731;SDS011;6937;56.096;12.664;2023-08-06T06:01:49;2.58;;;2.15;;
13731;SDS011;6937;56.096;12.664;2023-08-06T06:04:14;3.35;;;2.03;;
13731;SDS011;6937;56.096;12.664;2023-08-06T06:06:40;4.55;;;2.35;;
13731;SDS011;6937;56.096;12.664;2023-08-06T06:09:06;2.50;;;2.00;;
13731;SDS011;6937;56.096;12.664;2023-08-06T06:11:32;2.10;;;1.85;;
13731;SDS011;6937;56.096;12.664;2023-08-06T06:13:57;2.50;;;1.98;;
13731;SDS011;6937;56.096;12.664;2023-08-06T06:16:22;3.00;;;1.73;;
13731;SDS011;6937;56.096;12.664;2023-08-06T06:18:48;2.58;;;2.00;;
13731;SDS011;6937;56.096;12.664;2023-08-06T06:21:13;4.35;;;2.00;;
13731;SDS011;6937;56.096;12.664;2023-08-06T06:23:39;3.50;;;1.90;;
13731;SDS011;6937;56.096;12.664;2023-08-06T06:26:04;2.75;;;1.90;;
13731;SDS011;6937;56.096;12.664;2023-08-06T06:28:29;1.60;;;1.50;;
13731;SDS011;6937;56.096;12.664;2023-08-06T06:30:59;2.97;;;1.70;;
13731;SDS011;6937;56.096;12.664;2023-08-06T06:33:25;2.08;;;1.60;;
13731;SDS011;6937;56.096;12.664;2023-08-06T06:35:51;3.67;;;1.55;;
13731;SDS011;6937;56.096;12.664;2023-08-06T06:38:16;3.33;;;1.77;;
13731;SDS011;6937;56.096;12.664;2023-08-06T06:40:42;2.10;;;1.88;;
13731;SDS011;6937;56.096;12.664;2023-08-06T06:43:07;2.20;;;1.50;;
13731;SDS011;6937;56.096;12.664;2023-08-06T06:45:32;2.90;;;1.63;;
13731;SDS011;6937;56.096;12.664;2023-08-06T06:47:58;2.10;;;1.50;;
13731;SDS011;6937;56.096;12.664;2023-08-06T06:50:23;2.90;;;1.60;;
13731;SDS011;6937;56.096;12.664;2023-08-06T06:52:49;2.25;;;1.58;;
13731;SDS011;6937;56.096;12.664;2023-08-06T06:55:14;2.58;;;1.38;;
13731;SDS011;6937;56.096;12.664;2023-08-06T06:57:39;2.10;;;1.30;;
13731;SDS011;6937;56.096;12.664;2023-08-06T07:00:05;1.60;;;1.50;;
13731;SDS011;6937;56.096;12.664;2023-08-06T07:02:31;1.48;;;1.30;;
13731;SDS011;6937;56.096;12.664;2023-08-06T07:04:56;4.30;;;1.40;;
13731;SDS011;6937;56.096;12.664;2023-08-06T07:07:21;2.42;;;1.50;;
13731;SDS011;6937;56.096;12.664;2023-08-06T07:09:47;5.07;;;1.42;;
13731;SDS011;6937;56.096;12.664;2023-08-06T07:12:13;4.68;;;1.70;;
13731;SDS011;6937;56.096;12.664;2023-08-06T07:14:38;2.00;;;1.20;;
13731;SDS011;6937;56.096;12.664;2023-08-06T07:17:04;3.65;;;1.30;;
13731;SDS011;6937;56.096;12.664;2023-08-06T07:19:30;1.80;;;1.20;;
13731;SDS011;6937;56.096;12.664;2023-08-06T07:21:55;2.05;;;1.30;;
13731;SDS011;6937;56.096;12.664;2023-08-06T07:24:21;4.45;;;1.33;;
13731;SDS011;6937;56.096;12.664;2023-08-06T07:26:46;3.30;;;1.15;;
13731;SDS011;6937;56.096;12.664;2023-08-06T07:29:12;2.35;;;1.20;;
13731;SDS011;6937;56.096;12.664;2023-08-06T07:31:37;2.13;;;1.20;;
13731;SDS011;6937;56.096;12.664;2023-08-06T07:34:03;4.28;;;1.35;;
13731;SDS011;6937;56.096;12.664;2023-08-06T07:36:28;1.30;;;1.15;;
13731;SDS011;6937;56.096;12.664;2023-08-06T07:38:54;3.05;;;1.20;;
13731;SDS011;6937;56.096;12.664;2023-08-06T07:41:24;3.63;;;1.30;;
13731;SDS011;6937;56.096;12.664;2023-08-06T07:43:50;1.67;;;1.20;;
13731;SDS011;6937;56.096;12.664;2023-08-06T07:46:15;1.40;;;1.25;;
13731;SDS011;6937;56.096;12.664;2023-08-06T07:48:41;2.33;;;1.30;;
13731;SDS011;6937;56.096;12.664;2023-08-06T07:51:06;2.28;;;1.27;;
13731;SDS011;6937;56.096;12.664;2023-08-06T07:53:31;1.77;;;1.10;;
13731;SDS011;6937;56.096;12.664;2023-08-06T07:55:57;2.40;;;1.00;;
13731;SDS011;6937;56.096;12.664;2023-08-06T07:58:23;3.50;;;1.40;;
13731;SDS011;6937;56.096;12.664;2023-08-06T08:00:50;1.98;;;1.33;;
13731;SDS011;6937;56.096;12.664;2023-08-06T08:03:15;1.67;;;1.48;;
13731;SDS011;6937;56.096;12.664;2023-08-06T08:05:41;1.88;;;1.23;;
13731;SDS011;6937;56.096;12.664;2023-08-06T08:08:09;3.58;;;1.40;;
13731;SDS011;6937;56.096;12.664;2023-08-06T08:10:35;2.30;;;1.30;;
13731;SDS011;6937;56.096;12.664;2023-08-06T08:13:03;2.08;;;1.20;;
13731;SDS011;6937;56.096;12.664;2023-08-06T08:15:29;2.35;;;1.40;;
13731;SDS011;6937;56.096;12.664;2023-08-06T08:17:55;2.05;;;1.40;;
13731;SDS011;6937;56.096;12.664;2023-08-06T08:20:21;2.88;;;1.50;;
13731;SDS011;6937;56.096;12.664;2023-08-06T08:22:46;2.20;;;1.38;;
13731;SDS011;6937;56.096;12.664;2023-08-06T08:25:12;3.50;;;1.60;;
13731;SDS011;6937;56.096;12.664;2023-08-06T08:27:38;2.67;;;1.40;;
13731;SDS011;6937;56.096;12.664;2023-08-06T08:30:03;3.63;;;1.60;;
13731;SDS011;6937;56.096;12.664;2023-08-06T08:32:29;2.30;;;1.38;;
13731;SDS011;6937;56.096;12.664;2023-08-06T08:34:55;4.43;;;1.52;;
13731;SDS011;6937;56.096;12.664;2023-08-06T08:37:20;2.38;;;1.58;;
13731;SDS011;6937;56.096;12.664;2023-08-06T08:39:45;2.28;;;1.33;;
13731;SDS011;6937;56.096;12.664;2023-08-06T08:42:11;3.33;;;1.73;;
13731;SDS011;6937;56.096;12.664;2023-08-06T08:44:36;2.08;;;1.42;;
13731;SDS011;6937;56.096;12.664;2023-08-06T08:47:05;1.88;;;1.40;;
13731;SDS011;6937;56.096;12.664;2023-08-06T08:49:31;3.25;;;1.70;;
13731;SDS011;6937;56.096;12.664;2023-08-06T08:51:57;2.55;;;1.50;;
13731;SDS011;6937;56.096;12.664;2023-08-06T08:54:26;1.83;;;1.42;;
13731;SDS011;6937;56.096;12.664;2023-08-06T08:56:53;2.08;;;1.55;;
13731;SDS011;6937;56.096;12.664;2023-08-06T08:59:20;3.55;;;1.70;;
13731;SDS011;6937;56.096;12.664;2023-08-06T09:01:45;1.98;;;1.38;;
13731;SDS011;6937;56.096;12.664;2023-08-06T09:04:15;1.77;;;1.50;;
13731;SDS011;6937;56.096;12.664;2023-08-06T09:06:41;2.60;;;1.50;;
13731;SDS011;6937;56.096;12.664;2023-08-06T09:09:08;4.18;;;1.60;;
13731;SDS011;6937;56.096;12.664;2023-08-06T09:11:47;3.90;;;1.83;;
13731;SDS011;6937;56.096;12.664;2023-08-06T09:14:14;3.13;;;1.63;;
13731;SDS011;6937;56.096;12.664;2023-08-06T09:16:39;2.58;;;1.80;;
13731;SDS011;6937;56.096;12.664;2023-08-06T09:19:09;2.90;;;1.70;;
13731;SDS011;6937;56.096;12.664;2023-08-06T09:21:41;2.65;;;1.40;;
13731;SDS011;6937;56.096;12.664;2023-08-06T09:24:08;3.35;;;1.42;;
13731;SDS011;6937;56.096;12.664;2023-08-06T09:26:34;1.90;;;1.35;;
13731;SDS011;6937;56.096;12.664;2023-08-06T09:29:01;2.20;;;1.33;;
13731;SDS011;6937;56.096;12.664;2023-08-06T09:31:32;2.78;;;1.60;;
13731;SDS011;6937;56.096;12.664;2023-08-06T09:33:59;4.38;;;1.70;;
13731;SDS011;6937;56.096;12.664;2023-08-06T09:36:26;2.00;;;1.67;;
13731;SDS011;6937;56.096;12.664;2023-08-06T09:38:52;2.70;;;1.55;;
13731;SDS011;6937;56.096;12.664;2023-08-06T09:41:27;4.47;;;1.50;;
13731;SDS011;6937;56.096;12.664;2023-08-06T09:43:53;2.22;;;1.63;;
13731;SDS011;6937;56.096;12.664;2023-08-06T09:46:18;3.15;;;1.55;;
13731;SDS011;6937;56.096;12.664;2023-08-06T09:48:44;2.92;;;1.60;;
13731;SDS011;6937;56.096;12.664;2023-08-06T09:51:13;2.90;;;1.50;;
13731;SDS011;6937;56.096;12.664;2023-08-06T09:53:40;3.90;;;1.63;;
13731;SDS011;6937;56.096;12.664;2023-08-06T09:56:05;3.05;;;1.50;;
13731;SDS011;6937;56.096;12.664;2023-08-06T09:58:31;2.65;;;1.67;;
13731;SDS011;6937;56.096;12.664;2023-08-06T10:00:58;2.38;;;1.40;;
13731;SDS011;6937;56.096;12.664;2023-08-06T10:03:25;3.65;;;1.75;;
13731;SDS011;6937;56.096;12.664;2023-08-06T10:05:50;3.63;;;1.55;;
13731;SDS011;6937;56.096;12.664;2023-08-06T10:08:16;4.20;;;1.48;;
13731;SDS011;6937;56.096;12.664;2023-08-06T10:10:42;2.88;;;1.60;;
13731;SDS011;6937;56.096;12.664;2023-08-06T10:13:08;3.28;;;1.80;;
13731;SDS011;6937;56.096;12.664;2023-08-06T10:15:35;2.10;;;1.55;;
13731;SDS011;6937;56.096;12.664;2023-08-06T10:18:03;3.70;;;1.50;;
13731;SDS011;6937;56.096;12.664;2023-08-06T10:20:34;5.30;;;1.55;;
13731;SDS011;6937;56.096;12.664;2023-08-06T10:23:04;2.72;;;1.70;;
13731;SDS011;6937;56.096;12.664;2023-08-06T10:25:33;4.68;;;1.80;;
13731;SDS011;6937;56.096;12.664;2023-08-06T10:27:59;2.05;;;1.40;;
13731;SDS011;6937;56.096;12.664;2023-08-06T10:30:29;2.17;;;1.50;;
13731;SDS011;6937;56.096;12.664;2023-08-06T10:33:03;2.63;;;1.40;;
13731;SDS011;6937;56.096;12.664;2023-08-06T10:38:05;2.97;;;1.83;;
13731;SDS011;6937;56.096;12.664;2023-08-06T10:40:34;4.65;;;1.92;;
13731;SDS011;6937;56.096;12.664;2023-08-06T10:43:03;3.20;;;1.90;;
13731;SDS011;6937;56.096;12.664;2023-08-06T10:45:33;2.72;;;1.92;;
13731;SDS011;6937;56.096;12.664;2023-08-06T10:48:00;3.72;;;2.00;;
13731;SDS011;6937;56.096;12.664;2023-08-06T10:50:26;3.08;;;1.95;;
13731;SDS011;6937;56.096;12.664;2023-08-06T10:52:51;2.20;;;1.70;;
13731;SDS011;6937;56.096;12.664;2023-08-06T10:55:27;2.83;;;1.80;;
13731;SDS011;6937;56.096;12.664;2023-08-06T10:57:54;4.82;;;2.10;;
13731;SDS011;6937;56.096;12.664;2023-08-06T11:00:20;5.25;;;2.03;;
13731;SDS011;6937;56.096;12.664;2023-08-06T11:02:47;5.10;;;2.10;;
13731;SDS011;6937;56.096;12.664;2023-08-06T11:05:14;3.50;;;1.75;;
13731;SDS011;6937;56.096;12.664;2023-08-06T11:07:40;6.15;;;1.90;;
13731;SDS011;6937;56.096;12.664;2023-08-06T11:10:09;4.25;;;1.73;;
13731;SDS011;6937;56.096;12.664;2023-08-06T11:12:36;2.58;;;1.42;;
13731;SDS011;6937;56.096;12.664;2023-08-06T11:15:02;2.80;;;1.70;;
13731;SDS011;6937;56.096;12.664;2023-08-06T11:17:28;3.83;;;1.85;;
13731;SDS011;6937;56.096;12.664;2023-08-06T11:19:56;5.40;;;2.10;;
13731;SDS011;6937;56.096;12.664;2023-08-06T11:22:24;3.47;;;1.63;;
13731;SDS011;6937;56.096;12.664;2023-08-06T11:24:50;3.50;;;2.00;;
13731;SDS011;6937;56.096;12.664;2023-08-06T11:27:15;3.47;;;1.90;;
13731;SDS011;6937;56.096;12.664;2023-08-06T11:29:42;3.85;;;2.10;;
13731;SDS011;6937;56.096;12.664;2023-08-06T11:32:09;4.88;;;2.20;;
13731;SDS011;6937;56.096;12.664;2023-08-06T11:34:35;2.90;;;1.73;;
13731;SDS011;6937;56.096;12.664;2023-08-06T11:37:05;5.38;;;2.15;;
13731;SDS011;6937;56.096;12.664;2023-08-06T11:39:34;2.17;;;1.58;;
13731;SDS011;6937;56.096;12.664;2023-08-06T11:42:00;4.28;;;1.88;;
13731;SDS011;6937;56.096;12.664;2023-08-06T11:44:29;2.58;;;1.80;;
13731;SDS011;6937;56.096;12.664;2023-08-06T11:46:57;3.55;;;1.80;;
13731;SDS011;6937;56.096;12.664;2023-08-06T11:49:42;3.90;;;2.05;;
13731;SDS011;6937;56.096;12.664;2023-08-06T11:52:10;2.22;;;1.95;;
13731;SDS011;6937;56.096;12.664;2023-08-06T11:54:36;3.13;;;1.70;;
13731;SDS011;6937;56.096;12.664;2023-08-06T11:57:02;3.10;;;1.90;;
13731;SDS011;6937;56.096;12.664;2023-08-06T11:59:30;3.08;;;2.00;;
13731;SDS011;6937;56.096;12.664;2023-08-06T12:01:55;2.80;;;2.03;;
13731;SDS011;6937;56.096;12.664;2023-08-06T12:04:20;3.75;;;2.10;;
13731;SDS011;6937;56.096;12.664;2023-08-06T12:06:46;3.97;;;1.90;;
13731;SDS011;6937;56.096;12.664;2023-08-06T12:09:11;5.88;;;2.10;;
13731;SDS011;6937;56.096;12.664;2023-08-06T12:11:36;2.40;;;1.80;;
13731;SDS011;6937;56.096;12.664;2023-08-06T12:14:02;3.63;;;2.20;;
13731;SDS011;6937;56.096;12.664;2023-08-06T12:16:27;3.78;;;2.17;;
13731;SDS011;6937;56.096;12.664;2023-08-06T12:18:53;3.50;;;2.30;;
13731;SDS011;6937;56.096;12.664;2023-08-06T12:21:18;3.00;;;2.10;;
13731;SDS011;6937;56.096;12.664;2023-08-06T12:23:43;6.28;;;2.30;;
13731;SDS011;6937;56.096;12.664;2023-08-06T12:26:09;3.70;;;2.00;;
13731;SDS011;6937;56.096;12.664;2023-08-06T12:28:34;2.90;;;1.80;;
13731;SDS011;6937;56.096;12.664;2023-08-06T12:30:59;3.58;;;2.15;;
13731;SDS011;6937;56.096;12.664;2023-08-06T12:33:25;3.53;;;2.00;;
13731;SDS011;6937;56.096;12.664;2023-08-06T12:35:50;4.28;;;2.10;;
13731;SDS011;6937;56.096;12.664;2023-08-06T12:38:19;2.30;;;1.80;;
13731;SDS011;6937;56.096;12.664;2023-08-06T12:40:44;2.92;;;1.90;;
13731;SDS011;6937;56.096;12.664;2023-08-06T12:43:10;3.03;;;2.20;;
13731;SDS011;6937;56.096;12.664;2023-08-06T12:45:35;2.67;;;2.15;;
13731;SDS011;6937;56.096;12.664;2023-08-06T12:48:00;4.60;;;2.00;;
13731;SDS011;6937;56.096;12.664;2023-08-06T12:50:26;5.45;;;2.10;;
13731;SDS011;6937;56.096;12.664;2023-08-06T12:52:51;4.07;;;2.33;;
13731;SDS011;6937;56.096;12.664;2023-08-06T12:55:17;2.92;;;2.38;;
13731;SDS011;6937;56.096;12.664;2023-08-06T12:57:42;4.85;;;2.17;;
13731;SDS011;6937;56.096;12.664;2023-08-06T13:00:08;3.97;;;2.28;;
13731;SDS011;6937;56.096;12.664;2023-08-06T13:02:33;3.97;;;2.40;;
13731;SDS011;6937;56.096;12.664;2023-08-06T13:04:59;3.65;;;2.45;;
13731;SDS011;6937;56.096;12.664;2023-08-06T13:07:24;4.75;;;2.35;;
13731;SDS011;6937;56.096;12.664;2023-08-06T13:09:50;3.35;;;2.28;;
13731;SDS011;6937;56.096;12.664;2023-08-06T13:12:16;4.45;;;2.03;;
13731;SDS011;6937;56.096;12.664;2023-08-06T13:14:43;4.32;;;2.20;;
13731;SDS011;6937;56.096;12.664;2023-08-06T13:17:09;3.70;;;2.42;;
13731;SDS011;6937;56.096;12.664;2023-08-06T13:19:35;3.78;;;2.38;;
13731;SDS011;6937;56.096;12.664;2023-08-06T13:22:03;3.03;;;2.00;;
13731;SDS011;6937;56.096;12.664;2023-08-06T13:24:31;3.55;;;2.10;;
13731;SDS011;6937;56.096;12.664;2023-08-06T13:26:57;5.25;;;2.40;;
13731;SDS011;6937;56.096;12.664;2023-08-06T13:29:22;2.97;;;2.00;;
13731;SDS011;6937;56.096;12.664;2023-08-06T13:31:48;3.95;;;2.72;;
13731;SDS011;6937;56.096;12.664;2023-08-06T13:34:13;2.85;;;2.08;;
13731;SDS011;6937;56.096;12.664;2023-08-06T13:36:39;4.10;;;2.35;;
13731;SDS011;6937;56.096;12.664;2023-08-06T13:39:04;3.90;;;2.20;;
13731;SDS011;6937;56.096;12.664;2023-08-06T13:41:30;3.10;;;2.33;;
13731;SDS011;6937;56.096;12.664;2023-08-06T13:43:56;3.55;;;2.13;;
13731;SDS011;6937;56.096;12.664;2023-08-06T13:46:21;3.33;;;1.98;;
13731;SDS011;6937;56.096;12.664;2023-08-06T13:48:47;3.65;;;2.53;;
13731;SDS011;6937;56.096;12.664;2023-08-06T13:51:15;7.03;;;2.70;;
13731;SDS011;6937;56.096;12.664;2023-08-06T13:53:41;3.63;;;2.33;;
13731;SDS011;6937;56.096;12.664;2023-08-06T13:56:07;4.38;;;2.40;;
13731;SDS011;6937;56.096;12.664;2023-08-06T13:58:34;3.58;;;2.25;;
13731;SDS011;6937;56.096;12.664;2023-08-06T14:01:00;3.65;;;2.22;;
13731;SDS011;6937;56.096;12.664;2023-08-06T14:03:25;3.38;;;2.42;;
13731;SDS011;6937;56.096;12.664;2023-08-06T14:05:51;2.92;;;1.92;;
13731;SDS011;6937;56.096;12.664;2023-08-06T14:08:16;3.92;;;2.10;;
13731;SDS011;6937;56.096;12.664;2023-08-06T14:10:43;2.10;;;1.75;;
13731;SDS011;6937;56.096;12.664;2023-08-06T14:13:09;2.08;;;1.60;;
13731;SDS011;6937;56.096;12.664;2023-08-06T14:15:35;2.70;;;1.73;;
13731;SDS011;6937;56.096;12.664;2023-08-06T14:18:01;3.90;;;1.85;;
13731;SDS011;6937;56.096;12.664;2023-08-06T14:20:27;3.47;;;1.88;;
13731;SDS011;6937;56.096;12.664;2023-08-06T14:22:52;2.90;;;2.08;;
13731;SDS011;6937;56.096;12.664;2023-08-06T14:25:18;2.88;;;1.80;;
13731;SDS011;6937;56.096;12.664;2023-08-06T14:27:43;2.20;;;1.98;;
13731;SDS011;6937;56.096;12.664;2023-08-06T14:30:09;3.25;;;1.63;;
13731;SDS011;6937;56.096;12.664;2023-08-06T14:32:35;3.30;;;1.60;;
13731;SDS011;6937;56.096;12.664;2023-08-06T14:35:00;3.92;;;1.75;;
13731;SDS011;6937;56.096;12.664;2023-08-06T14:37:25;2.13;;;1.60;;
13731;SDS011;6937;56.096;12.664;2023-08-06T14:39:51;2.30;;;1.75;;
13731;SDS011;6937;56.096;12.664;2023-08-06T14:42:17;2.85;;;1.60;;
13731;SDS011;6937;56.096;12.664;2023-08-06T14:44:43;2.22;;;1.67;;
13731;SDS011;6937;56.096;12.664;2023-08-06T14:47:08;3.47;;;1.70;;